sensor_id;sensor_type;location;lat;lon;timestamp;pressure;altitude;pressure_sealevel;temperature;humidity
22964;BME280;11648;49.306;6.934;2023-04-20T00:00:00;98462.13;;;11.13;39.85
22964;BME280;11648;49.306;6.934;2023-04-20T00:02:39;98466.56;;;11.07;40.06
22964;BME280;11648;49.306;6.934;2023-04-20T00:05:06;98472.91;;;10.95;39.98
22964;BME280;11648;49.306;6.934;2023-04-20T00:07:33;98462.38;;;10.94;39.94
22964;BME280;11648;49.306;6.934;2023-04-20T00:10:02;98464.16;;;10.88;40.81
22964;BME280;11648;49.306;6.934;2023-04-20T00:12:29;98456.25;;;10.88;40.64
22964;BME280;11648;49.306;6.934;2023-04-20T00:14:56;98457.22;;;10.83;40.20
22964;BME280;11648;49.306;6.934;2023-04-20T00:17:22;98461.56;;;10.85;40.20
22964;BME280;11648;49.306;6.934;2023-04-20T00:19:49;98450.16;;;10.88;40.03
22964;BME280;11648;49.306;6.934;2023-04-20T00:22:16;98445.91;;;10.75;40.02
22964;BME280;11648;49.306;6.934;2023-04-20T00:24:43;98434.41;;;10.82;40.50
22964;BME280;11648;49.306;6.934;2023-04-20T00:27:09;98427.38;;;10.84;40.64
22964;BME280;11648;49.306;6.934;2023-04-20T00:29:37;98429.13;;;10.82;41.19
22964;BME280;11648;49.306;6.934;2023-04-20T00:32:04;98426.56;;;10.79;41.37
22964;BME280;11648;49.306;6.934;2023-04-20T00:34:31;98423.91;;;10.79;41.06
22964;BME280;11648;49.306;6.934;2023-04-20T00:36:59;98417.72;;;10.84;40.71
22964;BME280;11648;49.306;6.934;2023-04-20T00:39:26;98415.00;;;10.90;40.51
22964;BME280;11648;49.306;6.934;2023-04-20T00:41:53;98416.75;;;10.92;41.31
22964;BME280;11648;49.306;6.934;2023-04-20T00:44:19;98415.84;;;10.93;41.83
22964;BME280;11648;49.306;6.934;2023-04-20T00:46:46;98415.88;;;10.89;41.65
22964;BME280;11648;49.306;6.934;2023-04-20T00:49:13;98412.41;;;10.86;42.10
22964;BME280;11648;49.306;6.934;2023-04-20T00:51:40;98406.31;;;10.84;41.88
22964;BME280;11648;49.306;6.934;2023-04-20T00:54:06;98405.47;;;10.80;41.79
22964;BME280;11648;49.306;6.934;2023-04-20T00:56:33;98400.31;;;10.71;42.21
22964;BME280;11648;49.306;6.934;2023-04-20T00:59:00;98409.19;;;10.64;42.48
22964;BME280;11648;49.306;6.934;2023-04-20T01:01:27;98404.84;;;10.60;42.42
22964;BME280;11648;49.306;6.934;2023-04-20T01:03:54;98401.44;;;10.51;42.59
22964;BME280;11648;49.306;6.934;2023-04-20T01:06:21;98404.97;;;10.51;43.42
22964;BME280;11648;49.306;6.934;2023-04-20T01:08:49;98397.09;;;10.47;43.58
22964;BME280;11648;49.306;6.934;2023-04-20T01:11:16;98395.34;;;10.46;43.76
22964;BME280;11648;49.306;6.934;2023-04-20T01:13:43;98407.72;;;10.40;43.48
22964;BME280;11648;49.306;6.934;2023-04-20T01:16:10;98393.75;;;10.34;44.25
22964;BME280;11648;49.306;6.934;2023-04-20T01:18:42;98389.47;;;10.25;44.53
22964;BME280;11648;49.306;6.934;2023-04-20T01:21:13;98387.78;;;10.20;44.23
22964;BME280;11648;49.306;6.934;2023-04-20T01:23:41;98383.44;;;10.16;44.43
22964;BME280;11648;49.306;6.934;2023-04-20T01:26:09;98374.66;;;10.11;44.45
22964;BME280;11648;49.306;6.934;2023-04-20T01:28:36;98376.47;;;10.09;44.66
22964;BME280;11648;49.306;6.934;2023-04-20T01:31:05;98379.09;;;10.07;44.99
22964;BME280;11648;49.306;6.934;2023-04-20T01:33:33;98377.25;;;10.14;44.32
22964;BME280;11648;49.306;6.934;2023-04-20T01:36:00;98370.44;;;9.98;45.01
22964;BME280;11648;49.306;6.934;2023-04-20T01:38:28;98366.97;;;9.94;45.50
22964;BME280;11648;49.306;6.934;2023-04-20T01:41:01;98360.94;;;9.83;44.40
22964;BME280;11648;49.306;6.934;2023-04-20T01:43:28;98358.25;;;9.89;44.68
22964;BME280;11648;49.306;6.934;2023-04-20T01:45:55;98355.66;;;9.86;45.26
22964;BME280;11648;49.306;6.934;2023-04-20T01:48:21;98365.28;;;9.87;44.97
22964;BME280;11648;49.306;6.934;2023-04-20T01:50:51;98347.75;;;9.84;45.44
22964;BME280;11648;49.306;6.934;2023-04-20T01:53:18;98341.63;;;9.85;44.72
22964;BME280;11648;49.306;6.934;2023-04-20T01:55:47;98345.13;;;9.86;45.36
22964;BME280;11648;49.306;6.934;2023-04-20T01:58:14;98349.66;;;9.72;45.34
22964;BME280;11648;49.306;6.934;2023-04-20T02:00:40;98344.38;;;9.70;45.89
22964;BME280;11648;49.306;6.934;2023-04-20T02:03:07;98350.50;;;9.74;45.52
22964;BME280;11648;49.306;6.934;2023-04-20T02:05:34;98340.91;;;9.68;45.34
22964;BME280;11648;49.306;6.934;2023-04-20T02:08:01;98342.69;;;9.66;46.26
22964;BME280;11648;49.306;6.934;2023-04-20T02:10:28;98346.34;;;9.50;46.57
22964;BME280;11648;49.306;6.934;2023-04-20T02:12:54;98348.09;;;9.51;46.47
22964;BME280;11648;49.306;6.934;2023-04-20T02:15:21;98341.94;;;9.55;47.10
22964;BME280;11648;49.306;6.934;2023-04-20T02:17:48;98344.56;;;9.52;46.36
22964;BME280;11648;49.306;6.934;2023-04-20T02:20:18;98332.34;;;9.48;47.07
22964;BME280;11648;49.306;6.934;2023-04-20T02:22:45;98342.03;;;9.43;47.23
22964;BME280;11648;49.306;6.934;2023-04-20T02:25:13;98334.19;;;9.35;47.51
22964;BME280;11648;49.306;6.934;2023-04-20T02:27:40;98327.25;;;9.27;47.05
22964;BME280;11648;49.306;6.934;2023-04-20T02:30:07;98332.53;;;9.24;47.40
22964;BME280;11648;49.306;6.934;2023-04-20T02:32:34;98328.19;;;9.23;47.29
22964;BME280;11648;49.306;6.934;2023-04-20T02:35:01;98329.97;;;9.16;47.93
22964;BME280;11648;49.306;6.934;2023-04-20T02:37:30;98318.63;;;9.16;47.35
22964;BME280;11648;49.306;6.934;2023-04-20T02:39:57;98314.25;;;9.15;47.32
22964;BME280;11648;49.306;6.934;2023-04-20T02:42:25;98322.22;;;8.98;48.02
22964;BME280;11648;49.306;6.934;2023-04-20T02:44:54;98315.25;;;8.91;48.27
22964;BME280;11648;49.306;6.934;2023-04-20T02:47:21;98317.88;;;8.96;47.95
22964;BME280;11648;49.306;6.934;2023-04-20T02:49:50;98311.78;;;8.87;48.53
22964;BME280;11648;49.306;6.934;2023-04-20T02:52:17;98313.59;;;8.82;48.25
22964;BME280;11648;49.306;6.934;2023-04-20T02:54:43;98311.84;;;8.81;47.56
22964;BME280;11648;49.306;6.934;2023-04-20T02:57:12;98305.78;;;8.72;47.75
22964;BME280;11648;49.306;6.934;2023-04-20T02:59:38;98310.13;;;8.77;47.46
22964;BME280;11648;49.306;6.934;2023-04-20T03:02:13;98305.69;;;8.85;47.00
22964;BME280;11648;49.306;6.934;2023-04-20T03:04:40;98311.78;;;8.90;47.39
22964;BME280;11648;49.306;6.934;2023-04-20T03:07:16;98308.22;;;8.99;47.75
22964;BME280;11648;49.306;6.934;2023-04-20T03:09:45;98309.16;;;8.87;48.38
22964;BME280;11648;49.306;6.934;2023-04-20T03:12:34;98304.72;;;9.00;48.33
22964;BME280;11648;49.306;6.934;2023-04-20T03:15:08;98308.19;;;9.05;48.61
22964;BME280;11648;49.306;6.934;2023-04-20T03:17:47;98306.50;;;8.92;48.67
22964;BME280;11648;49.306;6.934;2023-04-20T03:20:16;98301.41;;;8.71;49.17
22964;BME280;11648;49.306;6.934;2023-04-20T03:22:42;98292.69;;;8.66;49.48
22964;BME280;11648;49.306;6.934;2023-04-20T03:25:09;98301.38;;;8.75;48.74
22964;BME280;11648;49.306;6.934;2023-04-20T03:28:00;98302.19;;;8.86;48.34
22964;BME280;11648;49.306;6.934;2023-04-20T03:30:27;98303.94;;;8.86;48.79
22964;BME280;11648;49.306;6.934;2023-04-20T03:33:04;98299.56;;;8.86;48.94
22964;BME280;11648;49.306;6.934;2023-04-20T03:35:32;98301.28;;;8.90;48.73
22964;BME280;11648;49.306;6.934;2023-04-20T03:37:59;98295.16;;;8.90;48.43
22964;BME280;11648;49.306;6.934;2023-04-20T03:40:26;98293.50;;;8.78;48.73
22964;BME280;11648;49.306;6.934;2023-04-20T03:42:53;98288.34;;;8.60;48.33
22964;BME280;11648;49.306;6.934;2023-04-20T03:45:20;98282.13;;;8.73;48.10
22964;BME280;11648;49.306;6.934;2023-04-20T03:47:48;98278.66;;;8.73;48.18
22964;BME280;11648;49.306;6.934;2023-04-20T03:50:15;98281.25;;;8.79;48.41
22964;BME280;11648;49.306;6.934;2023-04-20T03:52:41;98280.28;;;8.87;48.43
22964;BME280;11648;49.306;6.934;2023-04-20T03:55:09;98278.69;;;8.68;48.82
22964;BME280;11648;49.306;6.934;2023-04-20T03:57:40;98281.34;;;8.65;48.91
22964;BME280;11648;49.306;6.934;2023-04-20T04:00:07;98281.34;;;8.62;48.12
22964;BME280;11648;49.306;6.934;2023-04-20T04:02:45;98276.09;;;8.62;48.50
22964;BME280;11648;49.306;6.934;2023-04-20T04:05:17;98284.84;;;8.63;48.51
22964;BME280;11648;49.306;6.934;2023-04-20T04:07:43;98276.09;;;8.59;48.53
22964;BME280;11648;49.306;6.934;2023-04-20T04:10:11;98273.50;;;8.61;48.46
22964;BME280;11648;49.306;6.934;2023-04-20T04:12:38;98272.59;;;8.59;48.62
22964;BME280;11648;49.306;6.934;2023-04-20T04:15:06;98267.41;;;8.53;48.34
22964;BME280;11648;49.306;6.934;2023-04-20T04:17:39;98275.34;;;8.42;48.65
22964;BME280;11648;49.306;6.934;2023-04-20T04:20:06;98277.91;;;8.48;48.33
22964;BME280;11648;49.306;6.934;2023-04-20T04:22:34;98270.06;;;8.48;48.54
22964;BME280;11648;49.306;6.934;2023-04-20T04:25:20;98274.47;;;8.43;48.17
22964;BME280;11648;49.306;6.934;2023-04-20T04:27:49;98274.44;;;8.51;48.32
22964;BME280;11648;49.306;6.934;2023-04-20T04:30:16;98271.84;;;8.37;48.90
22964;BME280;11648;49.306;6.934;2023-04-20T04:32:43;98275.34;;;8.43;48.77
22964;BME280;11648;49.306;6.934;2023-04-20T04:35:12;98279.75;;;8.40;49.01
22964;BME280;11648;49.306;6.934;2023-04-20T04:37:40;98269.19;;;8.46;48.44
22964;BME280;11648;49.306;6.934;2023-04-20T04:40:08;98263.09;;;8.42;48.52
22964;BME280;11648;49.306;6.934;2023-04-20T04:42:35;98258.75;;;8.37;49.10
22964;BME280;11648;49.306;6.934;2023-04-20T04:45:03;98269.25;;;8.34;49.34
22964;BME280;11648;49.306;6.934;2023-04-20T04:47:33;98257.91;;;8.24;49.22
22964;BME280;11648;49.306;6.934;2023-04-20T04:50:04;98243.03;;;8.40;48.40
22964;BME280;11648;49.306;6.934;2023-04-20T04:52:32;98254.31;;;8.51;48.07
22964;BME280;11648;49.306;6.934;2023-04-20T04:54:58;98248.13;;;8.61;47.75
22964;BME280;11648;49.306;6.934;2023-04-20T04:57:25;98252.47;;;8.62;48.35
22964;BME280;11648;49.306;6.934;2023-04-20T04:59:53;98251.56;;;8.68;48.89
22964;BME280;11648;49.306;6.934;2023-04-20T05:02:19;98251.63;;;8.62;49.20
22964;BME280;11648;49.306;6.934;2023-04-20T05:04:47;98255.13;;;8.61;49.65
22964;BME280;11648;49.306;6.934;2023-04-20T05:07:14;98255.06;;;8.68;49.84
22964;BME280;11648;49.306;6.934;2023-04-20T05:09:40;98254.03;;;8.87;49.34
22964;BME280;11648;49.306;6.934;2023-04-20T05:12:07;98262.75;;;8.92;48.70
22964;BME280;11648;49.306;6.934;2023-04-20T05:14:34;98253.88;;;9.10;48.93
22964;BME280;11648;49.306;6.934;2023-04-20T05:17:01;98256.34;;;9.28;48.46
22964;BME280;11648;49.306;6.934;2023-04-20T05:19:28;98252.72;;;9.40;48.88
22964;BME280;11648;49.306;6.934;2023-04-20T05:21:55;98256.16;;;9.48;48.79
22964;BME280;11648;49.306;6.934;2023-04-20T05:24:21;98256.84;;;9.65;48.20
22964;BME280;11648;49.306;6.934;2023-04-20T05:26:48;98252.22;;;9.85;48.19
22964;BME280;11648;49.306;6.934;2023-04-20T05:29:15;98247.63;;;10.04;47.54
22964;BME280;11648;49.306;6.934;2023-04-20T05:31:42;98243.94;;;10.22;47.11
22964;BME280;11648;49.306;6.934;2023-04-20T05:34:10;98249.72;;;10.48;46.47
22964;BME280;11648;49.306;6.934;2023-04-20T05:36:38;98243.28;;;10.70;46.05
22964;BME280;11648;49.306;6.934;2023-04-20T05:39:05;98240.31;;;10.92;44.84
22964;BME280;11648;49.306;6.934;2023-04-20T05:41:32;98237.31;;;11.11;42.83
22964;BME280;11648;49.306;6.934;2023-04-20T05:43:59;98239.47;;;11.40;42.70
22964;BME280;11648;49.306;6.934;2023-04-20T05:46:25;98232.91;;;11.64;42.25
22964;BME280;11648;49.306;6.934;2023-04-20T05:48:53;98226.06;;;11.52;42.40
22964;BME280;11648;49.306;6.934;2023-04-20T05:51:20;98239.66;;;11.29;43.05
22964;BME280;11648;49.306;6.934;2023-04-20T05:53:47;98231.13;;;11.14;42.55
22964;BME280;11648;49.306;6.934;2023-04-20T05:56:14;98230.53;;;10.97;43.67
22964;BME280;11648;49.306;6.934;2023-04-20T05:58:41;98232.28;;;10.39;44.96
22964;BME280;11648;49.306;6.934;2023-04-20T06:01:08;98231.88;;;10.68;43.78
22964;BME280;11648;49.306;6.934;2023-04-20T06:03:35;98231.75;;;10.77;44.20
22964;BME280;11648;49.306;6.934;2023-04-20T06:06:02;98229.00;;;10.83;44.44
22964;BME280;11648;49.306;6.934;2023-04-20T06:08:28;98237.91;;;10.76;45.47
22964;BME280;11648;49.306;6.934;2023-04-20T06:10:55;98236.91;;;10.83;46.35
22964;BME280;11648;49.306;6.934;2023-04-20T06:13:23;98246.56;;;10.84;46.13
22964;BME280;11648;49.306;6.934;2023-04-20T06:15:50;98232.69;;;10.73;45.44
22964;BME280;11648;49.306;6.934;2023-04-20T06:18:18;98236.91;;;10.83;44.57
22964;BME280;11648;49.306;6.934;2023-04-20T06:20:45;98228.19;;;10.78;45.05
22964;BME280;11648;49.306;6.934;2023-04-20T06:23:12;98223.88;;;10.76;44.25
22964;BME280;11648;49.306;6.934;2023-04-20T06:25:39;98219.25;;;10.88;44.32
22964;BME280;11648;49.306;6.934;2023-04-20T06:28:06;98206.03;;;10.93;43.54
22964;BME280;11648;49.306;6.934;2023-04-20T06:30:33;98219.97;;;11.00;43.34
22964;BME280;11648;49.306;6.934;2023-04-20T06:33:01;98215.38;;;11.12;43.14
22964;BME280;11648;49.306;6.934;2023-04-20T06:35:29;98217.31;;;11.03;44.02
22964;BME280;11648;49.306;6.934;2023-04-20T06:37:56;98207.16;;;11.30;43.85
22964;BME280;11648;49.306;6.934;2023-04-20T06:40:26;98213.72;;;11.54;42.99
22964;BME280;11648;49.306;6.934;2023-04-20T06:42:54;98209.53;;;11.43;42.32
22964;BME280;11648;49.306;6.934;2023-04-20T06:45:21;98207.50;;;11.58;43.24
22964;BME280;11648;49.306;6.934;2023-04-20T06:47:48;98206.75;;;11.52;43.43
22964;BME280;11648;49.306;6.934;2023-04-20T06:50:14;98205.25;;;11.38;43.12
22964;BME280;11648;49.306;6.934;2023-04-20T06:52:41;98199.00;;;11.43;43.20
22964;BME280;11648;49.306;6.934;2023-04-20T06:55:08;98195.25;;;11.54;43.36
22964;BME280;11648;49.306;6.934;2023-04-20T06:57:35;98188.91;;;11.66;43.16
22964;BME280;11648;49.306;6.934;2023-04-20T07:00:06;98195.19;;;11.57;44.21
22964;BME280;11648;49.306;6.934;2023-04-20T07:02:44;98192.34;;;11.71;43.59
22964;BME280;11648;49.306;6.934;2023-04-20T07:05:12;98190.78;;;11.59;43.78
22964;BME280;11648;49.306;6.934;2023-04-20T07:07:40;98192.69;;;11.53;43.89
22964;BME280;11648;49.306;6.934;2023-04-20T07:10:07;98186.59;;;11.49;44.26
22964;BME280;11648;49.306;6.934;2023-04-20T07:12:35;98186.53;;;11.52;44.79
22964;BME280;11648;49.306;6.934;2023-04-20T07:15:03;98194.59;;;11.43;44.73
22964;BME280;11648;49.306;6.934;2023-04-20T07:17:30;98188.56;;;11.38;44.66
22964;BME280;11648;49.306;6.934;2023-04-20T07:19:58;98184.59;;;11.60;44.68
22964;BME280;11648;49.306;6.934;2023-04-20T07:22:32;98177.00;;;11.89;44.23
22964;BME280;11648;49.306;6.934;2023-04-20T07:25:00;98174.19;;;11.99;43.87
22964;BME280;11648;49.306;6.934;2023-04-20T07:27:28;98176.69;;;12.05;43.97
22964;BME280;11648;49.306;6.934;2023-04-20T07:29:57;98169.41;;;12.16;43.61
22964;BME280;11648;49.306;6.934;2023-04-20T07:32:24;98165.53;;;11.92;43.82
22964;BME280;11648;49.306;6.934;2023-04-20T07:34:51;98171.41;;;12.05;43.99
22964;BME280;11648;49.306;6.934;2023-04-20T07:37:18;98171.09;;;12.18;43.53
22964;BME280;11648;49.306;6.934;2023-04-20T07:39:44;98171.91;;;12.22;44.06
22964;BME280;11648;49.306;6.934;2023-04-20T07:42:11;98158.38;;;11.99;44.11
22964;BME280;11648;49.306;6.934;2023-04-20T07:44:38;98166.06;;;12.08;44.06
22964;BME280;11648;49.306;6.934;2023-04-20T07:47:05;98169.41;;;12.17;43.88
22964;BME280;11648;49.306;6.934;2023-04-20T07:49:35;98167.75;;;12.12;43.75
22964;BME280;11648;49.306;6.934;2023-04-20T07:52:03;98166.47;;;11.89;44.11
22964;BME280;11648;49.306;6.934;2023-04-20T07:54:43;98168.94;;;11.97;44.38
22964;BME280;11648;49.306;6.934;2023-04-20T07:57:30;98177.34;;;12.16;44.23
22964;BME280;11648;49.306;6.934;2023-04-20T07:59:57;98173.22;;;12.03;44.42
22964;BME280;11648;49.306;6.934;2023-04-20T08:02:24;98175.00;;;12.01;44.14
22964;BME280;11648;49.306;6.934;2023-04-20T08:04:51;98180.19;;;12.07;44.15
22964;BME280;11648;49.306;6.934;2023-04-20T08:07:18;98182.59;;;12.17;44.51
22964;BME280;11648;49.306;6.934;2023-04-20T08:09:45;98189.72;;;12.12;44.15
22964;BME280;11648;49.306;6.934;2023-04-20T08:12:11;98191.97;;;12.30;44.42
22964;BME280;11648;49.306;6.934;2023-04-20T08:14:39;98183.91;;;11.97;44.12
22964;BME280;11648;49.306;6.934;2023-04-20T08:17:06;98176.84;;;11.99;44.62
22964;BME280;11648;49.306;6.934;2023-04-20T08:19:33;98181.97;;;12.05;44.72
22964;BME280;11648;49.306;6.934;2023-04-20T08:22:00;98190.03;;;11.97;45.20
22964;BME280;11648;49.306;6.934;2023-04-20T08:24:28;98184.03;;;11.91;45.84
22964;BME280;11648;49.306;6.934;2023-04-20T08:26:55;98190.09;;;11.94;45.66
22964;BME280;11648;49.306;6.934;2023-04-20T08:29:22;98191.16;;;11.85;45.61
22964;BME280;11648;49.306;6.934;2023-04-20T08:31:48;98189.31;;;11.89;45.62
22964;BME280;11648;49.306;6.934;2023-04-20T08:34:17;98187.69;;;11.83;46.20
22964;BME280;11648;49.306;6.934;2023-04-20T08:36:44;98189.28;;;11.92;46.24
22964;BME280;11648;49.306;6.934;2023-04-20T08:39:17;98196.09;;;12.02;45.30
22964;BME280;11648;49.306;6.934;2023-04-20T08:41:44;98194.06;;;12.15;45.14
22964;BME280;11648;49.306;6.934;2023-04-20T08:44:12;98195.59;;;12.25;45.11
22964;BME280;11648;49.306;6.934;2023-04-20T08:46:40;98193.31;;;12.50;45.04
22964;BME280;11648;49.306;6.934;2023-04-20T08:49:17;98193.19;;;12.54;44.66
22964;BME280;11648;49.306;6.934;2023-04-20T08:51:45;98185.00;;;12.65;45.09
22964;BME280;11648;49.306;6.934;2023-04-20T08:54:13;98197.13;;;12.73;45.07
22964;BME280;11648;49.306;6.934;2023-04-20T08:56:42;98193.97;;;12.95;44.75
22964;BME280;11648;49.306;6.934;2023-04-20T08:59:09;98192.75;;;13.08;44.07
22964;BME280;11648;49.306;6.934;2023-04-20T09:01:37;98191.03;;;13.42;43.90
22964;BME280;11648;49.306;6.934;2023-04-20T09:04:24;98181.22;;;13.78;43.13
22964;BME280;11648;49.306;6.934;2023-04-20T09:06:54;98180.22;;;13.82;43.14
22964;BME280;11648;49.306;6.934;2023-04-20T09:09:22;98171.66;;;13.72;42.54
22964;BME280;11648;49.306;6.934;2023-04-20T09:12:08;98173.66;;;14.24;42.88
22964;BME280;11648;49.306;6.934;2023-04-20T09:14:43;98171.44;;;13.80;42.91
22964;BME280;11648;49.306;6.934;2023-04-20T09:17:09;98171.69;;;14.02;42.55
22964;BME280;11648;49.306;6.934;2023-04-20T09:19:42;98178.66;;;14.33;42.27
22964;BME280;11648;49.306;6.934;2023-04-20T09:22:09;98175.84;;;14.95;41.21
22964;BME280;11648;49.306;6.934;2023-04-20T09:24:37;98169.06;;;15.13;40.95
22964;BME280;11648;49.306;6.934;2023-04-20T09:27:14;98172.41;;;14.93;41.81
22964;BME280;11648;49.306;6.934;2023-04-20T09:29:42;98169.78;;;15.18;42.20
22964;BME280;11648;49.306;6.934;2023-04-20T09:32:20;98170.53;;;15.23;41.58
22964;BME280;11648;49.306;6.934;2023-04-20T09:34:47;98163.22;;;15.29;41.53
22964;BME280;11648;49.306;6.934;2023-04-20T09:37:14;98151.78;;;15.77;40.29
22964;BME280;11648;49.306;6.934;2023-04-20T09:39:45;98157.53;;;16.13;39.77
22964;BME280;11648;49.306;6.934;2023-04-20T09:42:15;98146.75;;;16.39;39.57
22964;BME280;11648;49.306;6.934;2023-04-20T09:44:42;98143.91;;;16.67;39.32
22964;BME280;11648;49.306;6.934;2023-04-20T09:47:15;98148.34;;;16.45;39.25
22964;BME280;11648;49.306;6.934;2023-04-20T09:49:44;98143.44;;;15.64;40.55
22964;BME280;11648;49.306;6.934;2023-04-20T09:52:15;98142.03;;;15.54;40.76
22964;BME280;11648;49.306;6.934;2023-04-20T09:54:43;98144.66;;;15.03;42.20
22964;BME280;11648;49.306;6.934;2023-04-20T09:57:12;98154.06;;;14.59;42.62
22964;BME280;11648;49.306;6.934;2023-04-20T09:59:42;98138.09;;;15.15;42.08
22964;BME280;11648;49.306;6.934;2023-04-20T10:02:10;98137.25;;;15.64;41.90
22964;BME280;11648;49.306;6.934;2023-04-20T10:04:59;98129.94;;;15.94;41.04
22964;BME280;11648;49.306;6.934;2023-04-20T10:07:29;98136.19;;;15.93;40.78
22964;BME280;11648;49.306;6.934;2023-04-20T10:12:45;98114.03;;;17.44;39.11
22964;BME280;11648;49.306;6.934;2023-04-20T10:15:12;98111.44;;;18.02;37.71
22964;BME280;11648;49.306;6.934;2023-04-20T10:17:39;98111.97;;;17.51;37.91
22964;BME280;11648;49.306;6.934;2023-04-20T10:20:22;98122.53;;;16.70;39.00
22964;BME280;11648;49.306;6.934;2023-04-20T10:22:53;98104.66;;;17.15;38.88
22964;BME280;11648;49.306;6.934;2023-04-20T10:25:24;98100.47;;;17.30;38.06
22964;BME280;11648;49.306;6.934;2023-04-20T10:27:57;98089.28;;;18.39;36.81
22964;BME280;11648;49.306;6.934;2023-04-20T10:30:25;98070.63;;;19.26;34.49
22964;BME280;11648;49.306;6.934;2023-04-20T10:33:10;98053.13;;;21.55;32.75
22964;BME280;11648;49.306;6.934;2023-04-20T10:35:52;98046.50;;;21.91;30.10
22964;BME280;11648;49.306;6.934;2023-04-20T10:38:27;98051.78;;;21.48;30.52
22964;BME280;11648;49.306;6.934;2023-04-20T10:41:10;98050.94;;;21.48;30.96
22964;BME280;11648;49.306;6.934;2023-04-20T10:43:37;98056.81;;;20.49;31.91
22964;BME280;11648;49.306;6.934;2023-04-20T10:46:21;98049.63;;;21.11;31.37
22964;BME280;11648;49.306;6.934;2023-04-20T10:48:59;98038.75;;;21.28;30.99
22964;BME280;11648;49.306;6.934;2023-04-20T10:51:27;98032.91;;;21.94;30.44
22964;BME280;11648;49.306;6.934;2023-04-20T10:54:07;98023.66;;;21.41;31.30
22964;BME280;11648;49.306;6.934;2023-04-20T10:59:27;98004.56;;;25.07;27.19
22964;BME280;11648;49.306;6.934;2023-04-20T11:01:54;98000.91;;;26.32;25.43
22964;BME280;11648;49.306;6.934;2023-04-20T11:04:31;97995.59;;;27.16;24.61
22964;BME280;11648;49.306;6.934;2023-04-20T11:07:09;97996.69;;;28.36;22.91
22964;BME280;11648;49.306;6.934;2023-04-20T11:09:39;97995.72;;;27.35;23.90
22964;BME280;11648;49.306;6.934;2023-04-20T11:12:09;97997.97;;;25.57;25.31
22964;BME280;11648;49.306;6.934;2023-04-20T11:14:55;98000.88;;;23.12;28.17
22964;BME280;11648;49.306;6.934;2023-04-20T11:17:34;98017.34;;;21.28;31.81
22964;BME280;11648;49.306;6.934;2023-04-20T11:20:09;98013.41;;;20.44;32.91
22964;BME280;11648;49.306;6.934;2023-04-20T11:22:38;98018.63;;;19.17;34.25
22964;BME280;11648;49.306;6.934;2023-04-20T11:25:09;98025.97;;;18.61;36.14
22964;BME280;11648;49.306;6.934;2023-04-20T11:27:37;98019.84;;;18.23;36.66
22964;BME280;11648;49.306;6.934;2023-04-20T11:30:05;98012.59;;;18.08;37.13
22964;BME280;11648;49.306;6.934;2023-04-20T11:32:34;98018.78;;;17.90;37.39
22964;BME280;11648;49.306;6.934;2023-04-20T11:35:07;98028.97;;;17.82;37.69
22964;BME280;11648;49.306;6.934;2023-04-20T11:38:04;98025.44;;;17.22;38.76
22964;BME280;11648;49.306;6.934;2023-04-20T11:40:31;98025.28;;;17.45;38.27
22964;BME280;11648;49.306;6.934;2023-04-20T11:42:58;98015.06;;;17.56;38.34
22964;BME280;11648;49.306;6.934;2023-04-20T11:45:26;98002.25;;;18.56;37.19
22964;BME280;11648;49.306;6.934;2023-04-20T11:47:56;97991.22;;;21.17;33.45
22964;BME280;11648;49.306;6.934;2023-04-20T11:50:23;97969.06;;;23.82;29.21
22964;BME280;11648;49.306;6.934;2023-04-20T11:52:50;97952.81;;;25.37;27.80
22964;BME280;11648;49.306;6.934;2023-04-20T11:55:17;97942.81;;;27.33;25.58
22964;BME280;11648;49.306;6.934;2023-04-20T11:57:43;97946.53;;;26.79;25.60
22964;BME280;11648;49.306;6.934;2023-04-20T12:00:11;97953.47;;;25.85;26.00
22964;BME280;11648;49.306;6.934;2023-04-20T12:02:41;97945.78;;;25.01;27.74
22964;BME280;11648;49.306;6.934;2023-04-20T12:05:08;97944.50;;;24.59;27.86
22964;BME280;11648;49.306;6.934;2023-04-20T12:07:35;97958.03;;;23.23;29.46
22964;BME280;11648;49.306;6.934;2023-04-20T12:10:02;97962.19;;;22.23;30.73
22964;BME280;11648;49.306;6.934;2023-04-20T12:12:29;97966.38;;;21.15;32.57
22964;BME280;11648;49.306;6.934;2023-04-20T12:14:56;97968.22;;;20.08;34.04
22964;BME280;11648;49.306;6.934;2023-04-20T12:17:23;97975.97;;;19.33;35.22
22964;BME280;11648;49.306;6.934;2023-04-20T12:19:49;97978.09;;;18.41;36.40
22964;BME280;11648;49.306;6.934;2023-04-20T12:22:16;97987.72;;;17.71;37.55
22964;BME280;11648;49.306;6.934;2023-04-20T12:24:43;97983.91;;;17.96;38.45
22964;BME280;11648;49.306;6.934;2023-04-20T12:27:10;97983.56;;;17.27;38.35
22964;BME280;11648;49.306;6.934;2023-04-20T12:29:36;97985.09;;;17.51;38.80
22964;BME280;11648;49.306;6.934;2023-04-20T12:32:03;97981.63;;;17.10;38.82
22964;BME280;11648;49.306;6.934;2023-04-20T12:34:30;97975.72;;;17.04;39.24
22964;BME280;11648;49.306;6.934;2023-04-20T12:36:56;97976.72;;;17.40;38.93
22964;BME280;11648;49.306;6.934;2023-04-20T12:39:23;97976.09;;;17.54;38.80
22964;BME280;11648;49.306;6.934;2023-04-20T12:41:50;97968.50;;;17.65;37.88
22964;BME280;11648;49.306;6.934;2023-04-20T12:44:16;97974.75;;;17.83;37.65
22964;BME280;11648;49.306;6.934;2023-04-20T12:46:43;97969.53;;;17.62;37.50
22964;BME280;11648;49.306;6.934;2023-04-20T12:49:10;97971.81;;;17.89;37.47
22964;BME280;11648;49.306;6.934;2023-04-20T12:51:37;97960.47;;;18.21;37.03
22964;BME280;11648;49.306;6.934;2023-04-20T12:54:04;97956.44;;;18.65;36.55
22964;BME280;11648;49.306;6.934;2023-04-20T12:56:30;97953.25;;;19.09;35.86
22964;BME280;11648;49.306;6.934;2023-04-20T12:58:57;97949.09;;;19.20;35.37
22964;BME280;11648;49.306;6.934;2023-04-20T13:01:24;97949.19;;;19.35;34.92
22964;BME280;11648;49.306;6.934;2023-04-20T13:03:51;97958.09;;;18.32;34.43
22964;BME280;11648;49.306;6.934;2023-04-20T13:06:18;97944.16;;;18.27;35.43
22964;BME280;11648;49.306;6.934;2023-04-20T13:08:46;97943.53;;;19.08;35.62
22964;BME280;11648;49.306;6.934;2023-04-20T13:11:12;97931.09;;;19.57;34.59
22964;BME280;11648;49.306;6.934;2023-04-20T13:13:41;97917.13;;;19.99;34.70
22964;BME280;11648;49.306;6.934;2023-04-20T13:16:08;97920.81;;;19.65;34.05